Time;durP1;ratioP1;P1;durP2;ratioP2;P2;SDS_P1;SDS_P2;PMS_P1;PMS_P2;Temp;Humidity;BMP_temperature;BMP_pressure;BME280_temperature;BME280_humidity;BME280_pressure;Samples;Min_cycle;Max_cycle;Signal;HPM_P1;HPM_P2
2021/06/17 00:01:50;;;;;;;;;;;;;;;-142.75;57.19;75782.97;5011993;28;19972;-79
2021/06/17 00:04:15;;;;;;;;;;;;;;;-142.75;57.33;75786.91;5012423;28;20401;-78
2021/06/17 00:06:40;;;;;;;;;;;;;;;-142.75;58.51;75802.66;4994597;28;19976;-79
2021/06/17 00:09:06;;;;;;;;;;;;;;;-142.75;58.86;75820.38;4995132;28;20275;-78
2021/06/17 00:11:31;;;;;;;;;;;;;;;-142.75;58.99;75851.88;5011910;28;19913;-77
2021/06/17 00:13:56;;;;;;;;;;;;;;;-142.75;58.61;75844.00;5011464;28;19913;-77
2021/06/17 00:16:22;;;;;;;;;;;;;;;-142.75;59.47;75853.84;5012532;28;19913;-77
2021/06/17 00:18:48;;;;;;;;;;;;;;;-142.75;59.68;75869.56;5012303;28;20489;-77
2021/06/17 00:21:13;;;;;;;;;;;;;;;-142.75;59.21;75857.78;5011903;28;19918;-77
2021/06/17 00:23:39;;;;;;;;;;;;;;;-142.75;59.44;75855.81;5010945;28;20298;-78
2021/06/17 00:26:04;;;;;;;;;;;;;;;-142.75;59.13;75845.97;5012673;28;19936;-76
2021/06/17 00:28:30;;;;;;;;;;;;;;;-142.75;59.19;75840.06;5014962;28;19913;-76
2021/06/17 00:30:55;;;;;;;;;;;;;;;-142.75;59.16;75838.09;4997261;28;20383;-77
2021/06/17 00:33:20;;;;;;;;;;;;;;;-142.75;59.26;75834.16;4997122;28;19920;-76
2021/06/17 00:35:46;;;;;;;;;;;;;;;-142.75;59.72;75844.00;5015289;28;19920;-77
2021/06/17 00:38:11;;;;;;;;;;;;;;;-142.75;60.54;75859.72;4997446;28;19918;-76
2021/06/17 00:40:36;;;;;;;;;;;;;;;-142.75;60.10;75859.72;5014710;28;19924;-77
2021/06/17 00:43:02;;;;;;;;;;;;;;;-142.75;60.68;75865.63;5016002;28;19921;-77
2021/06/17 00:45:29;;;;;;;;;;;;;;;-142.75;61.06;75877.44;5015861;28;19913;-76
2021/06/17 00:47:55;;;;;;;;;;;;;;;-142.75;61.18;75887.28;4998229;28;19921;-76
2021/06/17 00:50:21;;;;;;;;;;;;;;;-142.75;61.54;75897.13;5015200;28;19913;-76
2021/06/17 00:52:47;;;;;;;;;;;;;;;-142.75;61.71;75914.84;4997950;28;20003;-77
2021/06/17 00:55:12;;;;;;;;;;;;;;;-142.75;61.92;75930.59;5015096;28;20002;-77
2021/06/17 00:57:38;;;;;;;;;;;;;;;-142.75;62.15;75938.47;5015508;28;19913;-77
2021/06/17 01:00:05;;;;;;;;;;;;;;;-142.75;62.43;75944.38;5015524;28;19913;-77
2021/06/17 01:02:30;;;;;;;;;;;;;;;-142.75;62.96;75948.31;5015383;28;19917;-77
2021/06/17 01:04:55;;;;;;;;;;;;;;;-142.75;63.42;75948.31;5015890;28;19913;-76
2021/06/17 01:07:28;;;;;;;;;;;;;;;-142.75;63.06;75948.31;5015625;28;19968;-77
2021/06/17 01:10:02;;;;;;;;;;;;;;;-142.75;62.89;75954.22;5015111;28;20337;-77
2021/06/17 01:12:30;;;;;;;;;;;;;;;-142.75;62.74;75954.22;5015304;28;19969;-76
2021/06/17 01:15:02;;;;;;;;;;;;;;;-142.75;62.84;75956.19;5014789;28;19996;-77
2021/06/17 01:17:29;;;;;;;;;;;;;;;-142.75;63.33;75964.03;5014937;28;19920;-77
2021/06/17 01:20:24;;;;;;;;;;;;;;;-142.75;63.56;75969.94;5014687;28;19913;-76
2021/06/17 01:22:51;;;;;;;;;;;;;;;-142.75;63.97;75966.00;5010390;28;19917;-77
2021/06/17 01:25:16;;;;;;;;;;;;;;;-142.75;63.88;75964.03;4998152;28;19913;-77
2021/06/17 01:27:50;;;;;;;;;;;;;;;-142.75;63.73;75956.19;4997634;28;20306;-77
2021/06/17 01:30:18;;;;;;;;;;;;;;;-142.75;63.93;75952.25;5012684;28;19913;-77
2021/06/17 01:32:46;;;;;;;;;;;;;;;-142.75;63.73;75944.38;4997979;28;19913;-77
2021/06/17 01:35:12;;;;;;;;;;;;;;;-142.75;63.98;75932.56;5014978;28;20570;-77
2021/06/17 01:37:38;;;;;;;;;;;;;;;-142.75;62.89;75891.22;4996962;28;19914;-79
2021/06/17 01:40:04;;;;;;;;;;;;;;;-142.75;61.53;75857.78;4997791;28;19913;-78
2021/06/17 01:42:30;;;;;;;;;;;;;;;-142.75;61.17;75840.06;5015894;28;20291;-76
2021/06/17 01:44:56;;;;;;;;;;;;;;;-142.75;62.00;75822.34;5014489;28;19960;-76
2021/06/17 01:47:22;;;;;;;;;;;;;;;-142.75;60.93;75818.41;4996509;28;20389;-77
2021/06/17 01:49:48;;;;;;;;;;;;;;;-142.75;61.20;75814.47;5013774;28;19917;-78
2021/06/17 01:52:14;;;;;;;;;;;;;;;-142.75;60.49;75800.69;5016933;28;20347;-79
2021/06/17 01:54:41;;;;;;;;;;;;;;;-142.75;60.54;75790.84;5014538;28;19920;-78
2021/06/17 01:57:07;;;;;;;;;;;;;;;-142.75;60.63;75775.09;5015471;28;19913;-77
2021/06/17 01:59:33;;;;;;;;;;;;;;;-142.75;60.27;75771.16;5015714;28;19913;-79
2021/06/17 02:01:59;;;;;;;;;;;;;;;-142.75;60.21;75771.16;4997466;28;19917;-78
2021/06/17 02:04:25;;;;;;;;;;;;;;;-142.75;59.80;75767.22;5015191;28;19913;-79
2021/06/17 02:06:50;;;;;;;;;;;;;;;-142.75;60.51;75759.38;5015004;28;19928;-79
2021/06/17 02:09:16;;;;;;;;;;;;;;;-142.75;60.82;75757.41;5013738;28;19913;-78
2021/06/17 02:11:42;;;;;;;;;;;;;;;-142.75;60.55;75759.38;4997841;28;20596;-78
2021/06/17 02:14:11;;;;;;;;;;;;;;;-142.75;59.85;75751.50;4997040;28;20428;-79
2021/06/17 02:16:39;;;;;;;;;;;;;;;-142.75;60.41;75743.63;5014957;28;19913;-79
2021/06/17 02:19:05;;;;;;;;;;;;;;;-142.75;60.07;75739.69;5013073;28;19991;-78
2021/06/17 02:21:31;;;;;;;;;;;;;;;-142.75;59.31;75733.78;5013742;28;20382;-77
2021/06/17 02:23:58;;;;;;;;;;;;;;;-142.75;59.25;75727.88;5014017;28;19953;-78
2021/06/17 02:26:25;;;;;;;;;;;;;;;-142.75;59.80;75731.81;5014793;28;20436;-79
2021/06/17 02:28:50;;;;;;;;;;;;;;;-142.75;59.70;75729.84;4996599;28;20333;-79
2021/06/17 02:31:18;;;;;;;;;;;;;;;-142.75;60.12;75731.81;4997951;28;19917;-79
2021/06/17 02:33:46;;;;;;;;;;;;;;;-142.75;59.88;75735.75;4997205;28;20302;-78
2021/06/17 02:36:17;;;;;;;;;;;;;;;-142.75;59.41;75745.59;5013579;28;19976;-78
2021/06/17 02:38:45;;;;;;;;;;;;;;;-142.75;59.82;75751.50;4998056;28;19921;-78
2021/06/17 02:41:12;;;;;;;;;;;;;;;-142.75;59.59;75751.50;5014326;28;19918;-77
2021/06/17 02:43:40;;;;;;;;;;;;;;;-142.75;59.79;75757.41;5013362;28;20055;-78
2021/06/17 02:46:06;;;;;;;;;;;;;;;-142.75;59.34;75765.25;5012894;28;19913;-76
2021/06/17 02:48:31;;;;;;;;;;;;;;;-142.75;59.62;75767.22;5012304;28;19923;-78
2021/06/17 02:50:57;;;;;;;;;;;;;;;-142.75;59.91;75769.19;4995267;28;20279;-76
2021/06/17 02:53:22;;;;;;;;;;;;;;;-142.75;60.11;75784.94;5012766;28;19944;-76
2021/06/17 02:55:48;;;;;;;;;;;;;;;-142.75;61.31;75802.66;5012276;28;19921;-78
2021/06/17 02:58:31;;;;;;;;;;;;;;;-142.75;60.86;75802.66;4995105;28;19963;-79
2021/06/17 03:01:13;;;;;;;;;;;;;;;-142.75;60.98;75804.63;5013017;28;19977;-78
2021/06/17 03:03:44;;;;;;;;;;;;;;;-142.75;60.69;75804.63;4996716;28;19913;-78
2021/06/17 03:06:13;;;;;;;;;;;;;;;-142.75;60.86;75806.59;5012712;28;19914;-76
2021/06/17 03:08:46;;;;;;;;;;;;;;;-142.75;61.40;75816.44;4994997;28;19913;-77
2021/06/17 03:11:12;;;;;;;;;;;;;;;-142.75;61.61;75834.16;5011802;28;19984;-77
2021/06/17 03:13:42;;;;;;;;;;;;;;;-142.75;61.87;75851.88;5012651;28;19913;-77
2021/06/17 03:16:09;;;;;;;;;;;;;;;-142.75;61.78;75851.88;5014148;28;20004;-78
2021/06/17 03:18:36;;;;;;;;;;;;;;;-142.75;61.44;75834.16;5013537;28;20128;-79
2021/06/17 03:21:02;;;;;;;;;;;;;;;-142.75;60.98;75818.41;4995408;28;19921;-78
2021/06/17 03:23:29;;;;;;;;;;;;;;;-142.75;60.60;75806.59;5012369;28;19975;-77
2021/06/17 03:25:56;;;;;;;;;;;;;;;-142.75;60.94;75800.69;4995984;28;20402;-79
2021/06/17 03:28:22;;;;;;;;;;;;;;;-142.75;61.12;75800.69;4997306;28;20429;-78
2021/06/17 03:30:49;;;;;;;;;;;;;;;-142.75;61.71;75794.78;5013918;28;19921;-79
2021/06/17 03:33:16;;;;;;;;;;;;;;;-142.75;61.21;75800.69;4998725;28;19914;-79
2021/06/17 03:35:42;;;;;;;;;;;;;;;-142.75;61.57;75804.63;4996970;28;19917;-77
2021/06/17 03:38:08;;;;;;;;;;;;;;;-142.75;60.19;75806.59;4994696;28;19936;-77
2021/06/17 03:40:33;;;;;;;;;;;;;;;-142.75;59.76;75796.75;4994265;28;19925;-78
2021/06/17 03:43:00;;;;;;;;;;;;;;;-142.75;59.12;75788.88;4995009;28;19913;-77
2021/06/17 03:45:27;;;;;;;;;;;;;;;-142.75;59.42;75794.78;5011949;28;19913;-78
2021/06/17 03:47:53;;;;;;;;;;;;;;;-142.75;58.99;75792.81;4994735;28;19918;-79
2021/06/17 03:50:21;;;;;;;;;;;;;;;-142.75;58.42;75779.03;5013448;28;19936;-79
2021/06/17 03:52:47;;;;;;;;;;;;;;;-142.75;57.90;75773.13;4994791;28;19914;-77
2021/06/17 03:55:14;;;;;;;;;;;;;;;-142.75;59.09;75767.22;4994734;28;19913;-76
2021/06/17 03:57:39;;;;;;;;;;;;;;;-142.75;58.55;75771.16;5011458;28;19928;-80
2021/06/17 04:00:05;;;;;;;;;;;;;;;-142.75;57.88;75763.28;5014768;28;19922;-77
2021/06/17 04:02:31;;;;;;;;;;;;;;;-142.75;57.26;75737.72;5015184;28;19917;-77
2021/06/17 04:04:56;;;;;;;;;;;;;;;-142.75;57.84;75739.69;5016917;28;19917;-76
2021/06/17 04:07:22;;;;;;;;;;;;;;;-142.75;57.39;75733.78;5016563;28;19975;-77
2021/06/17 04:09:48;;;;;;;;;;;;;;;-142.75;56.85;75733.78;4999105;28;19944;-77
2021/06/17 04:12:15;;;;;;;;;;;;;;;-142.75;57.10;75731.81;5015177;28;19949;-76
2021/06/17 04:14:43;;;;;;;;;;;;;;;-142.75;56.56;75721.97;4997397;28;20442;-75
2021/06/17 04:17:09;;;;;;;;;;;;;;;-142.75;56.76;75716.06;5014871;28;19951;-76
2021/06/17 04:19:36;;;;;;;;;;;;;;;-142.75;56.75;75712.13;5015262;28;19943;-76
2021/06/17 04:22:03;;;;;;;;;;;;;;;-142.75;55.89;75704.25;5015068;28;19917;-77
2021/06/17 04:24:30;;;;;;;;;;;;;;;-142.75;55.78;75704.25;5015239;28;19936;-75
2021/06/17 04:26:55;;;;;;;;;;;;;;;-142.75;55.62;75692.44;5015402;28;20402;-75
2021/06/17 04:29:21;;;;;;;;;;;;;;;-142.75;55.43;75688.50;5046272;22;19928;-73
2021/06/17 04:31:50;;;;;;;;;;;;;;;-142.75;55.29;75678.66;5071076;28;19924;-74
2021/06/17 04:34:17;;;;;;;;;;;;;;;-142.75;55.42;75670.81;5072627;28;19912;-74
2021/06/17 04:36:43;;;;;;;;;;;;;;;-142.75;55.01;75659.00;5073861;28;19954;-74
2021/06/17 04:39:08;;;;;;;;;;;;;;;-142.75;54.42;75655.06;5073748;28;20324;-75
2021/06/17 04:41:35;;;;;;;;;;;;;;;-142.75;54.26;75643.25;5053849;28;19916;-73
2021/06/17 04:44:02;;;;;;;;;;;;;;;-142.75;54.38;75637.34;5054180;28;19912;-73
2021/06/17 04:46:28;;;;;;;;;;;;;;;-142.75;53.72;75629.47;5054002;28;19913;-73
2021/06/17 04:48:54;;;;;;;;;;;;;;;-142.75;54.00;75619.63;5053941;28;19919;-73
2021/06/17 04:51:20;;;;;;;;;;;;;;;-142.75;53.15;75621.59;5062330;28;20298;-74
2021/06/17 04:53:45;;;;;;;;;;;;;;;-142.75;53.96;75607.81;5073680;28;19913;-73
2021/06/17 04:56:10;;;;;;;;;;;;;;;-142.75;53.35;75603.88;5073913;28;19913;-74
2021/06/17 04:58:36;;;;;;;;;;;;;;;-142.75;53.57;75601.91;5055907;28;20011;-74
2021/06/17 05:01:05;;;;;;;;;;;;;;;-142.75;53.00;75596.00;5055773;28;19916;-75
2021/06/17 05:03:30;;;;;;;;;;;;;;;-142.75;53.82;75590.13;5073707;28;19912;-73
2021/06/17 05:05:58;;;;;;;;;;;;;;;-142.75;53.85;75582.25;5055638;28;20355;-73
2021/06/17 05:13:31;;;;;;;;;;;;;;;-142.75;53.93;75570.44;5073086;28;19919;-74
2021/06/17 05:16:00;;;;;;;;;;;;;;;-142.75;52.69;75562.56;5055566;28;19916;-73
2021/06/17 05:18:27;;;;;;;;;;;;;;;-142.75;53.23;75550.75;5073522;28;20003;-73
2021/06/17 05:20:52;;;;;;;;;;;;;;;-142.75;53.52;75546.81;5072893;28;20007;-73
2021/06/17 05:23:20;;;;;;;;;;;;;;;-142.75;53.55;75540.91;5073495;28;20488;-73
2021/06/17 05:25:46;;;;;;;;;;;;;;;-142.75;53.66;75531.06;5073475;28;19919;-74
2021/06/17 05:28:13;;;;;;;;;;;;;;;-142.75;54.37;75531.06;5073496;28;19912;-74
2021/06/17 05:30:39;;;;;;;;;;;;;;;-142.75;54.16;75511.41;5073227;28;19969;-74
2021/06/17 05:33:04;;;;;;;;;;;;;;;-142.75;53.99;75501.56;5073255;28;20011;-74
2021/06/17 05:35:29;;;;;;;;;;;;;;;-142.75;53.55;75491.72;5055476;28;19912;-74
2021/06/17 05:37:55;;;;;;;;;;;;;;;-142.75;54.24;75472.03;5073130;28;19912;-74
2021/06/17 05:40:20;;;;;;;;;;;;;;;-142.75;52.34;75432.69;5054957;28;19913;-74
2021/06/17 05:42:45;;;;;;;;;;;;;;;-142.75;51.68;75409.06;5072866;28;20385;-74
2021/06/17 05:45:11;;;;;;;;;;;;;;;-142.75;52.31;75373.63;5073216;28;19927;-74
2021/06/17 05:47:37;;;;;;;;;;;;;;;-142.75;51.62;75340.19;5055152;28;20377;-73
2021/06/17 05:50:03;;;;;;;;;;;;;;;-142.75;50.82;75334.28;5072560;28;19951;-73
2021/06/17 05:52:28;;;;;;;;;;;;;;;-142.75;50.55;75348.06;5054957;28;20005;-74
2021/06/17 05:54:53;;;;;;;;;;;;;;;-142.75;50.33;75342.16;5054267;28;19919;-73
2021/06/17 05:57:18;;;;;;;;;;;;;;;-142.75;50.48;75342.16;5072884;28;19916;-74
2021/06/17 05:59:43;;;;;;;;;;;;;;;-142.75;50.38;75330.34;5072522;28;19923;-74
2021/06/17 06:02:10;;;;;;;;;;;;;;;-142.75;50.74;75330.34;5072415;28;19922;-73
2021/06/17 06:04:36;;;;;;;;;;;;;;;-142.75;50.49;75346.09;5072667;28;20320;-73
2021/06/17 06:07:01;;;;;;;;;;;;;;;-142.75;51.11;75355.94;5072658;28;19919;-74
2021/06/17 06:09:26;;;;;;;;;;;;;;;-142.75;51.14;75369.69;5072262;28;20003;-74
2021/06/17 06:11:51;;;;;;;;;;;;;;;-142.75;52.87;75385.44;5072068;28;19939;-74
2021/06/17 06:14:16;;;;;;;;;;;;;;;-142.75;52.77;75399.22;5072268;28;19920;-75
2021/06/17 06:16:42;;;;;;;;;;;;;;;-142.75;53.53;75413.00;5054518;28;19912;-75
2021/06/17 06:19:07;;;;;;;;;;;;;;;-142.75;52.91;75426.78;5071982;28;20369;-75
2021/06/17 06:21:33;;;;;;;;;;;;;;;-142.75;52.28;75422.84;5054150;28;19916;-74
2021/06/17 06:23:58;;;;;;;;;;;;;;;-142.75;51.00;75413.00;5071156;28;19912;-74
2021/06/17 06:26:23;;;;;;;;;;;;;;;-142.75;50.49;75416.94;5071918;28;19987;-74
2021/06/17 06:28:48;;;;;;;;;;;;;;;-142.75;50.49;75414.97;5054047;28;19924;-73
2021/06/17 06:31:13;;;;;;;;;;;;;;;-142.75;49.74;75395.28;5071505;28;20289;-74
2021/06/17 06:33:39;;;;;;;;;;;;;;;-142.75;49.70;75387.41;5071917;28;19916;-74
2021/06/17 06:36:04;;;;;;;;;;;;;;;-142.75;48.78;75359.88;5071703;28;19912;-73
2021/06/17 06:38:29;;;;;;;;;;;;;;;-142.75;48.72;75346.09;5052378;28;19916;-73
2021/06/17 06:40:55;;;;;;;;;;;;;;;-142.75;47.28;75322.47;5071445;28;20008;-73
2021/06/17 06:43:21;;;;;;;;;;;;;;;-142.75;48.34;75306.72;5071773;28;19956;-73
2021/06/17 06:45:46;;;;;;;;;;;;;;;-142.75;47.65;75287.06;5071595;28;20488;-73
2021/06/17 06:48:12;;;;;;;;;;;;;;;-142.75;46.26;75279.19;5053660;28;19919;-74
2021/06/17 06:50:38;;;;;;;;;;;;;;;-142.75;46.20;75291.00;5071241;28;20011;-74
2021/06/17 06:53:03;;;;;;;;;;;;;;;-142.75;47.56;75289.03;5053195;28;20263;-73
2021/06/17 06:55:28;;;;;;;;;;;;;;;-142.75;46.44;75300.81;5071489;28;19916;-73
2021/06/17 06:57:55;;;;;;;;;;;;;;;-142.75;47.89;75302.78;5071396;28;20374;-73
2021/06/17 07:00:20;;;;;;;;;;;;;;;-142.75;47.93;75253.59;5053286;28;19951;-73
2021/06/17 07:02:45;;;;;;;;;;;;;;;-142.75;47.27;75163.09;5071284;28;19944;-72
2021/06/17 07:05:11;;;;;;;;;;;;;;;-142.75;44.67;75068.63;5071339;28;20380;-74
2021/06/17 07:07:36;;;;;;;;;;;;;;;-142.75;45.05;75001.72;5071184;28;19967;-73
2021/06/17 07:10:02;;;;;;;;;;;;;;;-142.75;44.45;74946.63;5052925;28;19920;-72
2021/06/17 07:12:27;;;;;;;;;;;;;;;-142.75;42.92;74889.56;5071339;28;20289;-74
2021/06/17 07:14:53;;;;;;;;;;;;;;;-142.75;41.81;74877.75;5052823;28;19912;-74
2021/06/17 07:17:18;;;;;;;;;;;;;;;-142.75;43.08;74846.28;5051277;28;19913;-73
2021/06/17 07:19:43;;;;;;;;;;;;;;;-142.75;42.67;74814.78;5052710;28;19916;-74
2021/06/17 07:22:09;;;;;;;;;;;;;;;-142.75;42.70;74745.94;5052702;28;20377;-74
2021/06/17 07:24:34;;;;;;;;;;;;;;;-142.75;42.34;74706.59;5071046;28;19908;-74
2021/06/17 07:27:00;;;;;;;;;;;;;;;-142.75;41.59;74653.47;5071064;28;19912;-73
2021/06/17 07:29:25;;;;;;;;;;;;;;;-142.75;41.18;74623.94;5070995;28;20389;-74
2021/06/17 07:31:50;;;;;;;;;;;;;;;-142.75;41.04;74590.50;5070802;28;19917;-73
2021/06/17 07:34:16;;;;;;;;;;;;;;;-142.75;40.77;74592.47;5071164;28;19912;-73
2021/06/17 07:36:41;;;;;;;;;;;;;;;-142.75;39.63;74566.88;5056663;28;19927;-73
2021/06/17 07:39:08;;;;;;;;;;;;;;;-142.75;39.51;74523.59;5075276;28;19920;-74
2021/06/17 07:41:34;;;;;;;;;;;;;;;-142.75;39.33;74539.34;5056845;28;19912;-73
2021/06/17 07:43:59;;;;;;;;;;;;;;;-142.75;39.14;74533.44;5057154;28;20286;-74
2021/06/17 07:46:25;;;;;;;;;;;;;;;-142.75;39.57;74490.16;5057358;28;19912;-74
2021/06/17 07:48:50;;;;;;;;;;;;;;;-142.75;39.90;74425.22;5074989;28;19951;-73
2021/06/17 07:51:15;;;;;;;;;;;;;;;-142.75;38.48;74433.09;5074623;28;20023;-74
2021/06/17 07:53:41;;;;;;;;;;;;;;;-142.75;36.99;74417.34;5056717;28;20046;-72
2021/06/17 07:56:06;;;;;;;;;;;;;;;-142.75;38.47;74387.84;5074801;28;19949;-73
2021/06/17 07:58:31;;;;;;;;;;;;;;;-142.75;38.30;74315.06;5074599;28;20377;-73
2021/06/17 08:00:56;;;;;;;;;;;;;;;-142.75;36.89;74254.06;5056463;28;19912;-74
2021/06/17 08:03:22;;;;;;;;;;;;;;;-142.75;38.05;74326.84;5074570;28;19912;-73
2021/06/17 08:05:47;;;;;;;;;;;;;;;-142.75;38.38;74417.34;5074598;28;19923;-73
2021/06/17 08:08:12;;;;;;;;;;;;;;;-142.75;39.47;74470.47;5074833;28;20371;-74
2021/06/17 08:10:39;;;;;;;;;;;;;;;-142.75;38.91;74496.06;5056278;28;19912;-72
2021/06/17 08:13:07;;;;;;;;;;;;;;;-142.75;40.11;74594.44;5056844;28;19917;-73
2021/06/17 08:15:32;;;;;;;;;;;;;;;-142.75;41.38;74637.72;5074413;28;20332;-74
2021/06/17 08:17:57;;;;;;;;;;;;;;;-142.75;41.68;74635.75;5074276;28;19912;-73
2021/06/17 08:20:23;;;;;;;;;;;;;;;-142.75;40.73;74559.00;5056332;28;19919;-73
2021/06/17 08:22:48;;;;;;;;;;;;;;;-142.75;41.34;74576.72;5074247;28;19922;-73
2021/06/17 08:25:13;;;;;;;;;;;;;;;-142.75;41.43;74614.09;5056284;28;20508;-72
2021/06/17 08:27:39;;;;;;;;;;;;;;;-142.75;42.13;74637.72;5074152;28;19917;-73
2021/06/17 08:30:05;;;;;;;;;;;;;;;-142.75;41.42;74688.88;5073671;28;20156;-73
2021/06/17 08:32:31;;;;;;;;;;;;;;;-142.75;43.14;74704.63;5074056;28;19916;-74
2021/06/17 08:34:56;;;;;;;;;;;;;;;-142.75;43.24;74757.75;5056007;28;20426;-74
2021/06/17 08:37:21;;;;;;;;;;;;;;;-142.75;43.01;74787.25;5066380;28;19912;-72
2021/06/17 08:39:47;;;;;;;;;;;;;;;-142.75;43.98;74826.59;5053692;28;19925;-72
2021/06/17 08:42:12;;;;;;;;;;;;;;;-142.75;44.11;74846.28;5053894;28;20035;-73
2021/06/17 08:44:37;;;;;;;;;;;;;;;-142.75;44.92;74854.16;5055228;28;19913;-73
2021/06/17 08:47:02;;;;;;;;;;;;;;;-142.75;45.63;74862.03;5072545;28;19912;-72
2021/06/17 08:49:28;;;;;;;;;;;;;;;-142.75;46.65;74869.88;5054782;28;19948;-73
2021/06/17 08:51:57;;;;;;;;;;;;;;;-142.75;46.25;74864.00;5053376;28;19913;-74
2021/06/17 08:54:24;;;;;;;;;;;;;;;-142.75;45.83;74834.47;5053383;28;20405;-73
2021/06/17 08:56:50;;;;;;;;;;;;;;;-142.75;46.12;74816.75;5072546;28;19917;-72
2021/06/17 08:59:16;;;;;;;;;;;;;;;-142.75;45.81;74816.75;5073399;28;20031;-72
2021/06/17 09:01:52;;;;;;;;;;;;;;;-142.75;45.33;74828.56;5073398;28;19958;-73
2021/06/17 09:04:26;;;;;;;;;;;;;;;-142.75;44.76;74848.25;5055617;28;20373;-72
2021/06/17 09:07:10;;;;;;;;;;;;;;;-142.75;46.62;74903.34;5073450;28;19912;-73
2021/06/17 09:09:37;;;;;;;;;;;;;;;-142.75;44.77;74976.16;5073328;28;19965;-72
2021/06/17 09:12:02;;;;;;;;;;;;;;;-142.75;45.34;75023.38;5055071;28;20025;-73
2021/06/17 09:14:28;;;;;;;;;;;;;;;-142.75;46.26;75072.56;5073388;28;19912;-72
2021/06/17 09:16:57;;;;;;;;;;;;;;;-142.75;46.84;75109.94;5073368;28;19912;-73
2021/06/17 09:19:38;;;;;;;;;;;;;;;-142.75;47.80;75129.63;5073073;28;20377;-73
2021/06/17 09:22:03;;;;;;;;;;;;;;;-142.75;49.04;75159.16;5055150;28;20002;-73
2021/06/17 09:24:29;;;;;;;;;;;;;;;-142.75;48.40;75149.31;5073152;28;19963;-72
2021/06/17 09:27:14;;;;;;;;;;;;;;;-142.75;48.39;75135.53;5073142;28;19934;-72
2021/06/17 09:29:40;;;;;;;;;;;;;;;-142.75;47.88;75133.56;5072768;28;19956;-72
2021/06/17 09:32:15;;;;;;;;;;;;;;;-142.75;48.05;75167.00;5054979;28;19947;-73
2021/06/17 09:34:40;;;;;;;;;;;;;;;-142.75;48.34;75143.41;5073009;28;19974;-72
2021/06/17 09:37:06;;;;;;;;;;;;;;;-142.75;47.42;75143.41;5055237;28;19913;-72
2021/06/17 09:39:31;;;;;;;;;;;;;;;-142.75;48.12;75147.34;5072994;28;19916;-76
2021/06/17 09:42:09;;;;;;;;;;;;;;;-142.75;47.41;75113.88;5054532;28;19967;-72
2021/06/17 09:44:37;;;;;;;;;;;;;;;-142.75;47.50;75121.75;5070738;28;19920;-73
2021/06/17 09:47:09;;;;;;;;;;;;;;;-142.75;46.76;75043.03;5054747;28;19912;-74
2021/06/17 09:49:35;;;;;;;;;;;;;;;-142.75;44.94;74989.91;5073285;28;20435;-73
2021/06/17 09:52:00;;;;;;;;;;;;;;;-142.75;44.58;74952.53;5072367;28;19912;-74
2021/06/17 09:54:28;;;;;;;;;;;;;;;-142.75;43.77;74921.06;5072434;28;19912;-73
2021/06/17 09:56:59;;;;;;;;;;;;;;;-142.75;43.26;74871.84;5061468;28;20400;-74
2021/06/17 09:59:36;;;;;;;;;;;;;;;-142.75;44.07;74858.09;5061172;28;20108;-72
2021/06/17 10:02:04;;;;;;;;;;;;;;;-142.75;44.77;74883.66;5061542;28;19912;-74
2021/06/17 10:04:29;;;;;;;;;;;;;;;-142.75;44.76;74891.53;5054441;28;19916;-74
2021/06/17 10:06:55;;;;;;;;;;;;;;;-142.75;44.61;74885.63;5072385;28;19912;-75
2021/06/17 10:09:20;;;;;;;;;;;;;;;-142.75;43.63;74856.13;5070968;28;19919;-74
2021/06/17 10:11:46;;;;;;;;;;;;;;;-142.75;44.18;74816.75;5066541;28;19931;-73
2021/06/17 10:14:12;;;;;;;;;;;;;;;-142.75;44.38;74781.34;5053230;28;19916;-74
2021/06/17 10:16:39;;;;;;;;;;;;;;;-142.75;43.16;74665.25;5054563;28;19973;-72
2021/06/17 10:19:05;;;;;;;;;;;;;;;-142.75;41.31;74682.97;5070737;28;20011;-73
2021/06/17 10:21:31;;;;;;;;;;;;;;;-142.75;41.63;74643.63;5072046;28;20007;-73
2021/06/17 10:23:57;;;;;;;;;;;;;;;-142.75;40.64;74655.44;5054482;28;19912;-75
2021/06/17 10:26:23;;;;;;;;;;;;;;;-142.75;39.99;74588.53;5055208;28;19971;-74
2021/06/17 10:28:49;;;;;;;;;;;;;;;-142.75;40.22;74592.47;5072350;28;19912;-73
2021/06/17 10:31:33;;;;;;;;;;;;;;;-142.75;40.09;74527.53;5070816;22;19929;-76
2021/06/17 10:34:18;;;;;;;;;;;;;;;-142.75;38.97;74541.31;5050655;28;19917;-75
2021/06/17 10:37:03;;;;;;;;;;;;;;;-142.75;39.91;74625.91;5051073;28;20007;-75
2021/06/17 10:39:37;;;;;;;;;;;;;;;-142.75;38.94;74523.59;5051617;28;19972;-74
2021/06/17 10:42:05;;;;;;;;;;;;;;;-142.75;38.97;74385.88;5037144;28;20023;-74
2021/06/17 10:44:37;;;;;;;;;;;;;;;-142.75;38.85;74358.34;5049756;28;19921;-75
2021/06/17 10:47:03;;;;;;;;;;;;;;;-142.75;38.59;74224.56;5051500;28;20012;-75
2021/06/17 10:49:47;;;;;;;;;;;;;;;-142.75;34.37;74128.16;5051602;28;19913;-75
2021/06/17 10:52:25;;;;;;;;;;;;;;;-142.75;37.00;74244.22;5047555;28;19913;-73
2021/06/17 10:55:00;;;;;;;;;;;;;;;-142.75;35.82;74141.94;5049097;28;19916;-75
2021/06/17 10:57:48;;;;;;;;;;;;;;;-142.75;35.45;74326.84;5047515;28;19920;-75
2021/06/17 11:00:27;;;;;;;;;;;;;;;-142.75;37.09;74450.81;5046561;28;19923;-75
2021/06/17 11:02:54;;;;;;;;;;;;;;;-142.75;36.15;74446.88;5046376;28;19913;-76
2021/06/17 11:05:28;;;;;;;;;;;;;;;-142.75;35.88;74421.28;5031545;28;19921;-75
2021/06/17 11:08:12;;;;;;;;;;;;;;;-142.75;36.81;74466.53;5049894;28;20293;-76
2021/06/17 11:10:48;;;;;;;;;;;;;;;-142.75;37.57;74466.53;5050301;28;19912;-75
2021/06/17 11:13:32;;;;;;;;;;;;;;;-142.75;36.88;74440.97;5051307;28;19916;-75
2021/06/17 11:16:01;;;;;;;;;;;;;;;-142.75;37.73;74358.34;5038334;28;19917;-74
2021/06/17 11:18:42;;;;;;;;;;;;;;;-142.75;36.67;74354.41;5044394;28;19917;-74
2021/06/17 11:21:23;;;;;;;;;;;;;;;-142.75;37.85;74391.78;5032706;28;19919;-75
2021/06/17 11:23:53;;;;;;;;;;;;;;;-142.75;38.01;74370.16;5048012;28;19917;-74
2021/06/17 11:26:35;;;;;;;;;;;;;;;-142.75;35.77;74285.53;5044912;28;20389;-74
2021/06/17 11:29:00;;;;;;;;;;;;;;;-142.75;36.65;74256.03;5030467;28;19924;-75
2021/06/17 11:31:52;;;;;;;;;;;;;;;-142.75;33.90;74185.22;5030609;28;19913;-75
2021/06/17 11:34:30;;;;;;;;;;;;;;;-142.75;35.74;74153.72;5044188;28;19959;-74
2021/06/17 11:36:56;;;;;;;;;;;;;;;-142.75;34.58;74155.69;5047269;28;19917;-74
2021/06/17 11:39:24;;;;;;;;;;;;;;;-142.75;33.76;74136.03;5048892;28;20271;-74
2021/06/17 11:41:50;;;;;;;;;;;;;;;-142.75;32.36;74155.69;5049274;28;20007;-74
2021/06/17 11:44:16;;;;;;;;;;;;;;;-142.75;32.76;74149.81;5049505;28;19944;-75
2021/06/17 11:46:42;;;;;;;;;;;;;;;-142.75;33.36;74200.94;5050811;28;19913;-75
2021/06/17 11:49:08;;;;;;;;;;;;;;;-142.75;33.76;74185.22;5050664;28;19966;-74
2021/06/17 11:51:40;;;;;;;;;;;;;;;-142.75;33.44;74232.44;5049312;28;19913;-74
2021/06/17 11:54:05;;;;;;;;;;;;;;;-142.75;35.04;74216.69;5049586;28;19943;-73
2021/06/17 11:56:31;;;;;;;;;;;;;;;-142.75;34.82;74244.22;5050782;28;19912;-74
2021/06/17 11:59:13;;;;;;;;;;;;;;;-142.75;35.23;74275.72;5050612;28;19917;-75
2021/06/17 12:01:38;;;;;;;;;;;;;;;-142.75;35.72;74356.38;5050243;28;19913;-74
2021/06/17 12:04:11;;;;;;;;;;;;;;;-142.75;36.12;74385.88;5050804;28;19981;-74
2021/06/17 12:06:36;;;;;;;;;;;;;;;-142.75;36.42;74374.06;5050739;28;20003;-75
2021/06/17 12:09:08;;;;;;;;;;;;;;;-142.75;36.73;74370.16;5049785;28;19986;-74
2021/06/17 12:11:35;;;;;;;;;;;;;;;-142.75;36.34;74397.69;5049081;28;19913;-74
2021/06/17 12:14:02;;;;;;;;;;;;;;;-142.75;36.61;74411.47;5050666;28;19989;-75
2021/06/17 12:16:27;;;;;;;;;;;;;;;-142.75;37.57;74440.97;5049437;28;19931;-73
2021/06/17 12:18:52;;;;;;;;;;;;;;;-142.75;37.75;74444.91;5050402;28;20305;-76
2021/06/17 12:21:28;;;;;;;;;;;;;;;-142.75;38.10;74456.72;5050240;28;19913;-75
2021/06/17 12:23:53;;;;;;;;;;;;;;;-142.75;37.93;74448.84;5054333;28;19965;-74
2021/06/17 12:26:18;;;;;;;;;;;;;;;-142.75;38.16;74446.88;5052297;28;19916;-74
2021/06/17 12:28:51;;;;;;;;;;;;;;;-142.75;38.77;74490.16;5051914;28;19916;-74
2021/06/17 12:31:26;;;;;;;;;;;;;;;-142.75;38.61;74549.19;5053684;28;19912;-75
2021/06/17 12:34:03;;;;;;;;;;;;;;;-142.75;38.91;74570.81;5054208;28;19912;-75
2021/06/17 12:36:28;;;;;;;;;;;;;;;-142.75;38.50;74580.66;5054259;28;19927;-75